Latest Weather Observations for Tamworth Airport

IDN60801

Issued at 5:42 am EST Friday 26 April 2019 (issued every 10 minutes, with the page automatically refreshed every 10 minutes)

About weather observations | Map of weather stations | Latest weather observations for NSW | Other Formats
Station Details ID: 055325 Name: TAMWORTH AIRPORT AWS Lat: -31.07 Lon: 150.84 Height: 394.9 m
Data from the previous 72 hours. | See also: Recent months at Tamworth Airport
Date/Time
EST
Temp
°C
App
Temp
°C
Dew
Point
°C
Rel
Hum
%
Delta-T
°C
Wind Press
QNH
hPa
Press
MSL
hPa
Rain since
9am
mm
Dir  Spd
km/h
Gust
km/h
Spd
kts
Gust
kts
26/05:30am 11.5 9.3 7.8 78 1.8 SSE 9 9 5 5 1018.7 1017.6 0.0
26/05:00am 11.3 10.7 7.4 77 1.9 CALM 0 0 0 0 1018.4 1017.3 0.0
26/04:30am 11.9 10.1 7.0 72 2.4 ESE 6 7 3 4 1018.3 1017.2 0.0
26/04:00am 13.6 13.2 8.4 71 2.6 CALM 0 0 0 0 1018.5 1017.4 0.0
26/03:30am 12.6 11.7 7.7 72 2.4 NNW 2 7 1 4 1018.4 1017.3 0.0
26/03:00am 12.5 11.8 7.0 69 2.7 CALM 0 0 0 0 1018.4 1017.3 0.0
26/02:30am 13.6 12.8 8.0 69 2.8 ESE 2 7 1 4 1018.6 1017.5 0.0
26/02:00am 13.8 11.5 7.6 66 3.1 SE 9 13 5 7 1018.7 1017.6 0.0
26/01:30am 14.3 12.1 7.8 65 3.3 S 9 13 5 7 1018.9 1017.8 0.0
26/01:00am 14.8 11.4 7.8 63 3.5 SSE 15 17 8 9 1019.1 1018.0 0.0
26/12:30am 15.4 13.6 7.9 61 3.8 S 7 9 4 5 1019.2 1018.1 0.0
26/12:00am 16.0 13.2 8.5 61 3.9 SE 13 17 7 9 1019.3 1018.2 0.0
 
Date/Time
EST
Temp
°C
App
Temp
°C
Dew
Point
°C
Rel
Hum
%
Delta-T
°C
Wind Press
QNH
hPa
Press
MSL
hPa
Rain since
9am
mm
Dir  Spd
km/h
Gust
km/h
Spd
kts
Gust
kts
25/11:30pm 15.8 12.0 7.6 58 4.2 SSE 17 19 9 10 1019.3 1018.2 0.0
25/11:00pm 16.7 13.0 7.9 56 4.5 S 17 17 9 9 1019.4 1018.3 0.0
25/10:30pm 16.6 13.9 7.5 55 4.7 S 11 13 6 7 1019.5 1018.4 0.0
25/10:00pm 17.2 14.0 8.4 56 4.6 SSE 15 17 8 9 1019.4 1018.3 0.0
25/09:38pm 16.2 14.0 7.9 58 4.3 S 9 13 5 7 1019.5 1018.4 0.0
25/09:30pm 15.9 14.1 7.9 59 4.1 SSW 7 11 4 6 1019.5 1018.4 0.0
25/09:20pm 16.0 14.3 7.7 58 4.2 WSW 6 7 3 4 1019.6 1018.5 0.0
25/09:18pm 15.9 14.2 7.7 58 4.2 WSW 6 7 3 4 1019.6 1018.5 0.0
25/09:00pm 16.1 14.1 7.1 55 4.5 S 7 11 4 6 1019.5 1018.4 0.0
25/08:50pm 16.8 14.6 7.7 55 4.7 S 9 11 5 6 1019.4 1018.3 0.0
25/08:30pm 17.6 15.8 7.9 53 5.0 S 7 11 4 6 1019.4 1018.3 0.0
25/08:00pm 18.9 16.7 7.7 48 5.8 SE 9 11 5 6 1019.2 1018.1 0.0
25/07:30pm 19.4 17.0 7.2 45 6.3 SSE 9 11 5 6 1019.0 1017.9 0.0
25/07:00pm 21.0 17.6 7.6 42 7.0 S 15 17 8 9 1018.8 1017.7 0.0
25/06:30pm 20.6 17.6 7.9 44 6.7 SSW 13 13 7 7 1018.6 1017.5 0.0
25/06:00pm 21.4 18.9 8.0 42 7.1 SSW 11 11 6 6 1018.5 1017.4 0.0
25/05:30pm 23.0 20.2 7.1 36 8.4 SW 11 13 6 7 1018.4 1017.3 0.0
25/05:00pm 25.4 22.3 7.1 31 9.8 SSW 13 15 7 8 1018.3 1017.2 0.0
25/04:30pm 26.7 23.8 6.7 28 10.7 SW 11 15 6 8 1018.2 1017.1 0.0
25/04:00pm 26.8 23.2 6.8 28 10.7 SSW 15 20 8 11 1018.3 1017.2 0.0
25/03:30pm 27.2 23.9 6.6 27 11.0 WSW 13 24 7 13 1018.4 1017.3 0.0
25/03:00pm 27.4 25.2 7.8 29 10.7 S 9 17 5 9 1018.4 1017.3 0.0
25/02:30pm 27.6 26.3 7.5 28 11.0 W 4 11 2 6 1018.5 1017.4 0.0
25/02:00pm 27.0 24.5 8.4 31 10.2 SSW 11 20 6 11 1018.8 1017.7 0.0
25/01:30pm 26.4 23.8 7.9 31 10.1 S 11 19 6 10 1019.1 1018.0 0.0
25/01:00pm 26.2 24.0 7.7 31 10.0 WNW 9 20 5 11 1019.6 1018.5 0.0
25/12:30pm 25.4 23.3 8.4 34 9.3 WSW 9 15 5 8 1020.2 1019.2 0.0
25/12:00pm 25.4 24.7 10.1 38 8.6 WNW 4 13 2 7 1021.0 1019.9 0.0
25/11:30am 23.4 22.3 9.8 42 7.5 S 6 11 3 6 1021.7 1020.6 0.0
25/11:00am 23.1 22.0 10.5 45 7.0 WSW 7 15 4 8 1022.2 1021.1 0.0
25/10:30am 22.0 20.8 10.2 47 6.5 W 7 11 4 6 1022.4 1021.4 0.0
25/10:00am 21.5 20.5 10.9 51 5.9 SSE 7 11 4 6 1022.6 1021.6 0.0
25/09:30am 19.6 18.6 10.9 57 4.8 SSE 7 9 4 5 1022.8 1021.8 0.0
25/09:00am 18.9 17.6 11.2 61 4.3 SE 9 11 5 6 1022.8 1021.8 0.0
25/08:30am 17.4 15.3 11.0 66 3.5 SE 13 17 7 9 1022.9 1021.9 0.0
25/08:00am 16.5 13.5 10.8 69 3.1 SSE 17 20 9 11 1022.8 1021.8 0.0
25/07:30am 15.7 13.5 10.7 72 2.7 SE 13 17 7 9 1022.7 1021.7 0.0
25/07:00am 13.9 11.5 9.9 77 2.1 SSE 13 15 7 8 1022.6 1021.6 0.0
25/06:30am 13.7 11.3 10.1 79 1.9 SSE 13 17 7 9 1022.3 1021.2 0.0
25/06:00am 13.0 10.5 9.8 81 1.7 SE 13 15 7 8 1022.4 1021.4 0.0
25/05:30am 13.2 10.6 9.5 78 1.9 SSE 13 15 7 8 1022.2 1021.1 0.0
25/05:00am 13.6 10.7 9.6 77 2.1 SSE 15 17 8 9 1022.0 1020.9 0.0
25/04:30am 14.0 11.1 9.8 76 2.2 SSE 15 15 8 8 1021.8 1020.7 0.0
25/04:00am 14.1 11.6 9.7 75 2.3 SSE 13 15 7 8 1021.6 1020.5 0.0
25/03:30am 14.2 11.8 10.2 77 2.1 S 13 17 7 9 1021.6 1020.5 0.0
25/03:00am 14.5 12.4 9.7 73 2.5 SSE 11 15 6 8 1021.6 1020.5 0.0
25/02:30am 14.3 11.7 9.5 73 2.5 SSE 13 13 7 7 1021.6 1020.5 0.0
25/02:00am 14.8 11.9 9.6 71 2.7 SSE 15 15 8 8 1021.8 1020.7 0.0
25/01:30am 15.5 13.0 9.8 69 3.0 S 13 15 7 8 1022.0 1020.9 0.0
25/01:00am 14.1 12.1 8.5 69 2.9 S 9 13 5 7 1022.1 1021.0 0.0
25/12:30am 15.4 13.1 9.1 66 3.3 SSE 11 13 6 7 1022.2 1021.1 0.0
25/12:00am 16.3 13.6 9.0 62 3.8 SE 13 15 7 8 1022.2 1021.1 0.0
 
Date/Time
EST
Temp
°C
App
Temp
°C
Dew
Point
°C
Rel
Hum
%
Delta-T
°C
Wind Press
QNH
hPa
Press
MSL
hPa
Rain since
9am
mm
Dir  Spd
km/h
Gust
km/h
Spd
kts
Gust
kts
24/11:30pm 16.9 14.0 9.6 62 3.9 SSE 15 19 8 10 1022.3 1021.2 0.0
24/11:00pm 16.9 13.6 9.6 62 3.9 SSE 17 19 9 10 1022.4 1021.4 0.0
24/10:30pm 16.9 14.3 9.3 61 4.0 SE 13 15 7 8 1022.4 1021.4 0.0
24/10:00pm 17.4 14.8 9.3 59 4.3 SSE 13 19 7 10 1022.5 1021.5 0.0
24/09:30pm 18.4 15.8 9.5 56 4.8 SE 13 15 7 8 1022.5 1021.5 0.0
24/09:00pm 18.4 15.8 9.2 55 4.9 SSE 13 19 7 10 1022.4 1021.4 0.0
24/08:30pm 19.0 17.2 8.1 49 5.7 SE 7 11 4 6 1022.3 1021.2 0.0
24/08:00pm 20.0 19.0 8.7 48 6.0 E 4 7 2 4 1022.2 1021.1 0.0
24/07:30pm 19.0 17.9 8.4 50 5.6 W 4 6 2 3 1022.2 1021.1 0.0
24/07:00pm 19.5 17.9 8.2 48 5.9 SSW 6 9 3 5 1022.0 1020.9 0.0
24/06:30pm 19.9 17.3 7.9 46 6.3 SSW 11 13 6 7 1021.9 1020.8 0.0
24/06:00pm 21.3 19.2 8.2 43 7.0 WSW 9 11 5 6 1021.6 1020.5 0.0
24/05:30pm 22.6 20.8 8.0 39 7.8 WSW 7 7 4 4 1021.4 1020.3 0.0
24/05:00pm 23.7 21.7 7.3 35 8.7 SW 7 7 4 4 1021.2 1020.1 0.0
24/04:30pm 25.1 22.8 7.3 32 9.5 SSW 9 15 5 8 1021.1 1020.0 0.0
24/04:00pm 26.0 24.9 7.1 30 10.1 SSW 2 11 1 6 1021.0 1019.9 0.0
24/03:30pm 26.6 24.2 7.1 29 10.5 W 9 15 5 8 1021.2 1020.1 0.0
24/03:00pm 26.7 24.0 7.2 29 10.5 SSW 11 17 6 9 1021.3 1020.2 0.0
24/02:30pm 26.5 24.6 7.5 30 10.3 SW 7 13 4 7 1021.5 1020.4 0.0
24/02:00pm 26.1 23.7 7.2 30 10.1 WNW 9 17 5 9 1021.8 1020.7 0.0
24/01:30pm 25.5 22.5 7.6 32 9.7 WSW 13 19 7 10 1022.1 1021.0 0.0
24/01:00pm 25.3 23.5 7.9 33 9.4 SW 7 13 4 7 1022.3 1021.2 0.0
24/12:30pm 24.9 23.3 8.8 36 8.9 S 7 13 4 7 1022.9 1021.9 0.0
24/12:00pm 25.3 23.7 8.7 35 9.1 ESE 7 13 4 7 1023.5 1022.4 0.0
24/11:30am 24.4 21.9 8.4 36 8.7 SSW 11 17 6 9 1024.0 1022.9 0.0
24/11:00am 23.3 21.2 8.2 38 8.1 SW 9 15 5 8 1024.2 1023.1 0.0
24/10:30am 23.5 22.9 8.8 39 8.0 NNE 2 7 1 4 1024.7 1023.7 0.0
24/10:00am 22.1 20.7 8.9 43 7.1 SSW 6 11 3 6 1025.1 1024.1 0.0
24/09:30am 21.9 20.0 9.1 44 7.0 E 9 15 5 8 1025.4 1024.4 0.0
24/09:00am 21.1 18.6 9.7 48 6.2 ESE 13 20 7 11 1025.4 1024.4 0.0
24/08:30am 20.5 17.8 10.3 52 5.6 ESE 15 19 8 10 1025.4 1024.4 0.0
24/08:00am 19.1 17.3 10.9 59 4.5 SE 11 15 6 8 1025.4 1024.4 0.0
24/07:30am 17.0 15.1 10.4 65 3.6 SE 11 13 6 7 1025.3 1024.3 0.0
24/07:00am 15.2 13.3 10.4 73 2.6 SSE 11 13 6 7 1025.0 1024.0 0.0
24/06:30am 14.7 12.3 9.9 73 2.5 SSE 13 15 7 8 1024.8 1023.8 0.0
24/06:00am 15.0 14.2 9.8 71 2.7 SE 4 7 2 4 1024.7 1023.7 0.0
24/05:30am 15.3 12.9 10.1 71 2.8 SSE 13 15 7 8 1024.2 1023.1 0.0
24/05:00am 15.5 12.3 10.1 70 2.9 SSE 17 19 9 10 1024.0 1022.9 0.0
24/04:30am 14.9 12.0 9.7 71 2.7 S 15 17 8 9 1024.0 1022.9 0.0
24/04:00am 14.9 13.2 9.7 71 2.7 SSE 9 9 5 5 1023.9 1022.8 0.0
24/03:30am 15.6 13.8 9.3 66 3.3 ESE 9 11 5 6 1023.9 1022.8 0.0
24/03:00am 17.3 14.9 10.0 62 3.9 E 13 15 7 8 1024.2 1023.1 0.0
24/02:30am 18.0 14.3 10.1 60 4.3 ESE 20 30 11 16 1024.2 1023.1 0.0
24/02:00am 17.8 14.4 10.4 62 4.0 ESE 19 20 10 11 1024.1 1023.0 0.0
24/01:30am 17.6 15.4 10.7 64 3.8 ESE 13 19 7 10 1024.2 1023.1 0.0
24/01:00am 16.9 14.7 10.7 67 3.4 ESE 13 15 7 8 1024.1 1023.0 0.0
24/12:30am 17.3 15.3 10.2 63 3.8 SE 11 15 6 8 1024.2 1023.1 0.0
24/12:00am 18.6 15.0 10.7 60 4.3 SE 20 30 11 16 1024.1 1023.0 0.0
 
Date/Time
EST
Temp
°C
App
Temp
°C
Dew
Point
°C
Rel
Hum
%
Delta-T
°C
Wind Press
QNH
hPa
Press
MSL
hPa
Rain since
9am
mm
Dir  Spd
km/h
Gust
km/h
Spd
kts
Gust
kts
23/11:30pm 18.9 15.3 10.5 58 4.6 SE 20 28 11 15 1024.4 1023.3 0.0
23/11:00pm 19.3 15.6 10.3 56 4.9 ESE 20 28 11 15 1024.6 1023.6 0.0
23/10:30pm 19.7 15.2 10.1 54 5.3 ESE 24 35 13 19 1024.8 1023.8 0.0
23/10:00pm 20.2 15.8 10.3 53 5.4 ESE 24 32 13 17 1025.1 1024.1 0.0
23/09:30pm 20.5 15.4 10.6 53 5.5 ESE 28 35 15 19 1025.0 1024.0 0.0
23/09:00pm 20.9 17.0 10.7 52 5.7 ESE 22 26 12 14 1024.9 1023.9 0.0
23/08:30pm 21.3 17.2 10.2 49 6.1 ESE 22 30 12 16 1024.8 1023.8 0.0
23/08:00pm 21.4 17.2 9.6 47 6.4 ESE 22 28 12 15 1024.8 1023.8 0.0
23/07:30pm 21.2 17.4 9.1 46 6.6 SE 19 24 10 13 1024.7 1023.7 0.0
23/07:00pm 21.6 18.3 9.5 46 6.6 ESE 17 22 9 12 1024.4 1023.3 0.0
23/06:30pm 21.8 19.2 10.6 49 6.3 ESE 15 20 8 11 1024.3 1023.2 0.0
23/06:00pm 22.3 18.9 11.1 49 6.3 E 20 28 11 15 1023.9 1022.8 0.0
23/05:30pm 23.2 19.7 10.9 46 7.0 E 20 28 11 15 1023.6 1022.5 0.0
23/05:00pm 24.1 20.2 10.7 43 7.6 E 22 28 12 15 1023.0 1022.0 0.0
23/04:30pm 25.2 21.7 8.7 35 9.1 NE 17 22 9 12 1022.8 1021.8 0.0
23/04:00pm 25.7 21.5 8.2 33 9.5 NE 20 28 11 15 1022.6 1021.6 0.0
23/03:30pm 26.2 22.1 8.7 33 9.7 ENE 20 30 11 16 1022.6 1021.6 0.0
23/03:00pm 26.5 22.8 9.4 34 9.5 ENE 19 24 10 13 1022.5 1021.5 0.0
23/02:30pm 26.3 21.5 8.8 33 9.7 ENE 24 30 13 16 1022.4 1021.4 0.0
23/02:00pm 27.4 22.2 8.8 31 10.3 E 26 37 14 20 1022.7 1021.7 0.0
23/01:30pm 27.3 22.8 10.1 34 9.8 E 24 30 13 16 1022.9 1021.9 0.0
23/01:00pm 27.6 23.9 9.4 32 10.2 ESE 19 26 10 14 1023.1 1022.1 0.0
23/12:30pm 27.6 23.9 9.4 32 10.2 ENE 19 26 10 14 1023.7 1022.6 0.0
23/12:00pm 26.8 23.2 8.3 31 10.1 ENE 17 30 9 16 1024.2 1023.1 0.0
23/11:30am 26.6 23.7 9.5 34 9.6 ESE 15 22 8 12 1024.9 1023.9 0.0
23/11:00am 25.4 24.0 9.7 37 8.7 NE 7 17 4 9 1025.5 1024.5 0.0
23/10:30am 24.5 23.0 10.4 41 8.0 SE 9 13 5 7 1025.9 1024.9 0.0
23/10:00am 23.2 20.9 10.3 44 7.2 ESE 13 20 7 11 1026.2 1025.1 0.0
23/09:30am 22.7 20.4 10.5 46 6.8 ESE 13 22 7 12 1026.4 1025.3 0.0
23/09:00am 21.8 19.2 10.6 49 6.2 ESE 15 22 8 12 1026.6 1025.5 0.0
23/08:30am 21.1 18.7 11.4 54 5.5 ESE 15 20 8 11 1026.7 1025.6 0.0
23/08:00am 20.4 17.6 11.3 56 5.1 ESE 17 22 9 12 1026.4 1025.3 0.0
23/07:30am - - - - - SE 13 20 7 11 - - 0.0
23/07:00am 17.0 15.1 11.7 71 2.9 SSE 13 17 7 9 1025.9 1024.9 0.0
23/06:30am 15.6 13.0 10.8 73 2.6 S 15 17 8 9 1025.5 1024.5 0.0
23/06:00am 15.6 13.7 10.6 72 2.7 S 11 15 6 8 1025.2 1024.2 0.0

Other formats

Comma delimited format used in spreadsheet applications
http://www.bom.gov.au/fwo/IDN60801/IDN60801.95762.axf

JavaScript Object Notation format (JSON) in row-major order
http://www.bom.gov.au/fwo/IDN60801/IDN60801.95762.json

Data quality

Most of these data are generated automatically and are frequently updated. Quality checks on data are not normally performed. It is possible for incorrect values to appear. Refer to information at About Latest Weather Observations and please check the disclaimer before using these data.